Historyczne dane pomiarowe

Dodano dane terminowe – wersja testowa.

Dane z okresu 1951-2019

Wersja bazy: 1.34 [2019-03-16, lista zmian], aktualizacja planowana na 2019-04-15

Dane meteo z obszaru Polski uzyskane na podstawie danych udostępnionych przez Instytut Meteorologii i Gospodarki Wodnej – Państwowy Instytut Badawczy.

 

Wybierz Datę:    

       

TemperaturaWilgotnośćWiatrCiśnienieOpadyŚniegCzas trwania zjawisk
 Stacja t tx tn tng RH VA  wxwx mslp ppp RRR   cm mm wxwxwxwxwxwxwx
2019-07-03 18.5 25.4 11.3 11.2-- 2.0 3.7---- 0.0------------
2019-07-02 23.8 31.0 18.4 18.4-- 3.3 3.3---- 0.0------------
2019-07-01 27.1 36.5 16.0 12.6-- 2.3 5.3---- 0.0------------
2019-06-30 24.5 33.6 12.6 9.6-- 0.0 1.7---- 0.0------------
2019-06-29 20.3 27.2 9.8 9.5-- 1.0 2.0---- 0.0------------
2019-06-28 18.4 24.8 11.7 10.7-- 3.3 3.0---- 0.0------------
2019-06-27 25.6 31.0 22.3 21.1-- 1.7 4.7---- 0.0------------
2019-06-26 26.5 34.4 17.4 15.1-- 0.3 1.7---- 0.0------------
2019-06-25 23.7 30.8 14.3 12.8-- 0.3 2.3---- 0.0------------
2019-06-24 22.0 26.8 14.3 13.6-- 1.7 1.7---- 0.0------------
2019-06-23 21.4 26.8 15.4 14.6-- 3.0 2.0---- 0.0------------
2019-06-22 20.7 25.8 15.3 14.0-- 5.3 1.0---- 0.0------------
2019-06-21 21.4 27.8 16.2 15.1-- 5.7 1.7---- 0.0------------
2019-06-20 20.8 28.3 14.3 13.8-- 6.0 1.3---- 1.9------------
2019-06-19 22.4 29.4 15.2 13.6-- 3.7 1.3---- 0.0------------
2019-06-18 19.8 24.8 12.8 10.7-- 3.7 1.0---- 0.0------------
2019-06-17 19.3 22.8 16.3 16.2-- 5.7 1.3---- 0.0------------
2019-06-16 22.2 29.5 16.8 15.6-- 2.3 2.7---- 0.8------------
2019-06-15 26.2 33.3 18.7 16.6-- 2.0 1.7---- 0.0------------
2019-06-14 24.6 30.1 17.6 17.4-- 2.7 0.7---- 0.0------------
2019-06-13 24.1 31.2 15.3 14.6-- 0.3 1.7---- 0.0------------
2019-06-12 24.2 30.8 15.3 12.6-- 0.7 3.0---- 0.0------------
2019-06-11 24.4 30.1 16.6 13.6-- 0.3 2.7---- 0.0------------
2019-06-10 23.0 29.4 15.2 14.6-- 1.3 3.0---- 0.0------------
2019-06-09 19.8 25.3 12.3 9.7-- 0.7 1.7---- 0.0------------
2019-06-08 21.3 28.9 13.8 12.6-- 3.0 2.0---- 0.0------------
2019-06-07 20.3 27.3 12.3 10.7-- 4.0 2.3---- 0.0------------
2019-06-06 20.0 25.4 13.3 12.1-- 2.3 2.7---- 0.0------------
2019-06-05 20.7 25.8 14.3 11.8-- 1.3 2.7---- 0.0------------
2019-06-04 21.3 27.3 14.3 11.7-- 1.7 1.7---- 0.0------------
2019-06-03 20.3 26.3 12.2 11.8-- 0.0 1.0---- 0.0------------
2019-06-02 19.3 25.8 12.6 11.7-- 1.7 1.7---- 0.0------------
2019-06-01 17.3 23.4 8.8 8.2-- 5.0 1.0---- 0.4------------
2019-05-31 15.7 21.3 10.0 10.0-- 2.7 1.0---- 0.0------------
2019-05-30 12.1 14.9 10.3 10.7-- 8.0 2.0---- 2.9------------
2019-05-29 14.2 18.7 11.8 11.1-- 7.0 2.7---- 0.3------------
2019-05-28 18.4 22.3 13.6 12.6-- 4.0 3.0---- 0.0------------
2019-05-27 18.2 24.8 10.8 9.3-- 4.0 2.7---- 1.9------------
2019-05-26 17.4 22.8 11.2 9.3-- 4.0 0.3---- 0.0------------
2019-05-25 16.9 21.8 13.1 12.1-- 4.0 1.3---- 0.0------------
2019-05-24 13.4 15.4 11.8 12.1-- 8.0 2.0---- 0.6------------
2019-05-23 13.8 17.3 10.8 9.7-- 8.0 3.3---- 12.4------------
2019-05-22 14.0 15.9 12.8 11.7-- 8.0 2.7---- 8.5------------
2019-05-21 14.5 21.3 9.8 8.7-- 8.0 5.0---- 97.6------------
2019-05-20 18.3 22.3 12.4 10.5-- 4.7 3.0---- 0.0------------
2019-05-19 17.6 23.8 13.0 9.7-- 3.0 2.0---- 3.1------------
2019-05-18 18.4 23.8 12.6 10.5-- 1.7 1.3---- 0.0------------
2019-05-17 17.4 21.3 13.7 13.4-- 5.7 2.0---- 0.0------------
2019-05-16 13.2 18.3 8.2 8.1-- 5.3 1.0---- 13.0------------
2019-05-15 9.6 11.9 7.1 7.0-- 8.0 1.7---- 14.6------------
2019-05-14 6.6 9.0 4.3 4.8-- 8.0 2.0---- 14.4------------
2019-05-13 8.8 12.2 6.8 7.7-- 7.3 3.7---- 6.3------------
2019-05-12 14.0 21.3 8.8 7.4-- 6.0 2.3---- 1.5------------
2019-05-11 14.2 19.6 8.3 5.8-- 4.3 2.0---- 0.0------------
2019-05-10 11.8 17.8 6.8 5.0-- 5.0 1.7---- 0.2------------
2019-05-09 9.1 12.4 4.4 2.9-- 7.7 4.0---- 1.6------------
2019-05-08 8.6 15.9 1.4 -1.1-- 2.0 2.0---- 0.0------------
2019-05-07 8.9 14.4 4.2 3.4-- 4.7 4.0---- 0.0------------
2019-05-06 8.4 11.5 5.2 5.0-- 7.7 3.0---- 0.2------------
2019-05-05 7.5 11.9 4.8 5.2-- 8.0 4.0---- 1.0------------
162.4 ms

 

Źródłem pochodzenia danych jest Instytut Meteorologii i Gospodarki Wodnej – Państwowy Instytut Badawczy. Dane Instytutu Meteorologii i Gospodarki Wodnej – Państwowego Instytutu Badawczego zostały przetworzone.

Dane źródłowe można odnaleźć na stronie https://dane.imgw.pl